createdAt,value
2023-04-16T00:00:39.342Z,934.53
2023-04-16T00:01:39.855Z,934.54
2023-04-16T00:02:40.774Z,934.58
2023-04-16T00:03:41.532Z,934.54
2023-04-16T00:04:42.290Z,934.58
2023-04-16T00:05:43.089Z,934.57
2023-04-16T00:06:43.315Z,934.55
2023-04-16T00:07:43.816Z,934.57
2023-04-16T00:08:44.559Z,934.56
2023-04-16T00:09:45.057Z,934.52
2023-04-16T00:10:45.947Z,934.49
2023-04-16T00:11:47.036Z,934.54
2023-04-16T00:12:47.910Z,934.52
2023-04-16T00:13:48.461Z,934.51
2023-04-16T00:14:48.698Z,934.58
2023-04-16T00:15:49.585Z,934.54
2023-04-16T00:16:50.098Z,934.5
2023-04-16T00:17:50.392Z,934.51
2023-04-16T00:18:51.218Z,934.57
2023-04-16T00:19:51.320Z,934.56
2023-04-16T00:20:52.069Z,934.52
2023-04-16T00:21:53.113Z,934.55
2023-04-16T00:22:53.577Z,934.58
2023-04-16T00:23:53.863Z,934.57
2023-04-16T00:24:54.303Z,934.56
2023-04-16T00:25:55.301Z,934.57
2023-04-16T00:26:56.022Z,934.59
2023-04-16T00:27:56.943Z,934.61
2023-04-16T00:28:57.259Z,934.58
2023-04-16T00:29:57.501Z,934.55
2023-04-16T00:30:58.014Z,934.58
2023-04-16T00:31:58.729Z,934.59
2023-04-16T00:32:59.212Z,934.62
2023-04-16T00:33:59.948Z,934.64
2023-04-16T00:35:00.512Z,934.61
2023-04-16T00:36:00.807Z,934.6
2023-04-16T00:37:01.693Z,934.65
2023-04-16T00:38:02.410Z,934.63
2023-04-16T00:39:02.709Z,934.64
2023-04-16T00:40:03.230Z,934.66
2023-04-16T00:41:04.002Z,934.66
2023-04-16T00:42:05.068Z,934.63
2023-04-16T00:43:05.756Z,934.69
2023-04-16T00:44:06.148Z,934.67
2023-04-16T00:45:06.753Z,934.68
2023-04-16T00:46:07.533Z,934.71
2023-04-16T00:47:07.756Z,934.73
2023-04-16T00:48:08.334Z,934.68
2023-04-16T00:49:09.038Z,934.69
2023-04-16T00:50:09.686Z,934.69
2023-04-16T00:51:10.642Z,934.67
2023-04-16T00:52:11.215Z,934.69
2023-04-16T00:53:11.906Z,934.65
2023-04-16T00:54:12.395Z,934.78
2023-04-16T00:55:12.968Z,934.75
2023-04-16T00:56:13.829Z,934.69
2023-04-16T00:57:13.944Z,934.66
2023-04-16T00:58:14.621Z,934.62
2023-04-16T00:59:15.519Z,934.7
2023-04-16T01:00:15.992Z,934.65
2023-04-16T01:01:16.968Z,934.72
2023-04-16T01:02:17.971Z,934.77
2023-04-16T01:03:18.677Z,934.7
2023-04-16T01:04:19.399Z,934.71
2023-04-16T01:05:19.552Z,934.76
2023-04-16T01:06:20.238Z,934.72
2023-04-16T01:07:21.226Z,934.73
2023-04-16T01:08:22.102Z,934.71
2023-04-16T01:09:22.579Z,934.76
2023-04-16T01:10:23.301Z,934.7
2023-04-16T01:11:23.807Z,934.71
2023-04-16T01:12:24.506Z,934.76
2023-04-16T01:13:25.013Z,934.76
2023-04-16T01:14:25.714Z,934.79
2023-04-16T01:15:26.246Z,934.78
2023-04-16T01:16:27.185Z,934.78
2023-04-16T01:17:27.749Z,934.79
2023-04-16T01:18:27.919Z,934.81
2023-04-16T01:19:28.861Z,934.8
2023-04-16T01:20:29.341Z,934.75
2023-04-16T01:21:29.859Z,934.81
2023-04-16T01:22:30.681Z,934.8
2023-04-16T01:23:31.582Z,934.79
2023-04-16T01:24:32.260Z,934.82
2023-04-16T01:25:32.536Z,934.87
2023-04-16T01:26:33.062Z,934.84
2023-04-16T01:27:33.396Z,934.84
2023-04-16T01:28:33.662Z,934.83
2023-04-16T01:29:34.742Z,934.82
2023-04-16T01:30:35.029Z,934.84
2023-04-16T01:31:35.358Z,934.84
2023-04-16T01:32:35.643Z,934.8
2023-04-16T01:33:36.314Z,934.79
2023-04-16T01:34:36.614Z,934.82
2023-04-16T01:35:36.986Z,934.82
2023-04-16T01:36:37.300Z,934.79
2023-04-16T01:37:37.572Z,934.78
2023-04-16T01:38:38.072Z,934.79
2023-04-16T01:39:38.556Z,934.81
2023-04-16T01:40:39.059Z,934.83
2023-04-16T01:41:39.758Z,934.84
2023-04-16T01:42:40.460Z,934.85
2023-04-16T01:43:40.924Z,934.83
2023-04-16T01:44:41.754Z,934.83
2023-04-16T01:45:42.242Z,934.82
2023-04-16T01:46:42.810Z,934.85
2023-04-16T01:47:43.830Z,934.85
2023-04-16T01:48:44.556Z,934.83
2023-04-16T01:49:45.456Z,934.88
2023-04-16T01:50:46.127Z,934.91
2023-04-16T01:51:47.029Z,934.85
2023-04-16T01:52:48.034Z,934.9
2023-04-16T01:53:48.726Z,934.91
2023-04-16T01:54:49.203Z,934.94
2023-04-16T01:55:50.014Z,934.94
2023-04-16T01:56:50.494Z,934.95
2023-04-16T01:57:50.989Z,934.94
2023-04-16T01:58:51.299Z,934.99
2023-04-16T01:59:52.202Z,934.96
2023-04-16T02:00:52.750Z,934.95
2023-04-16T02:01:53.601Z,934.94
2023-04-16T02:02:54.259Z,934.97
2023-04-16T02:03:55.239Z,934.96
2023-04-16T02:04:55.913Z,934.95
2023-04-16T02:05:56.127Z,934.92
2023-04-16T02:06:56.727Z,934.91
2023-04-16T02:07:57.322Z,934.91
2023-04-16T02:08:58.123Z,934.92
2023-04-16T02:09:58.443Z,934.96
2023-04-16T02:10:59.131Z,934.99
2023-04-16T02:11:59.654Z,934.97
2023-04-16T02:13:00.342Z,935
2023-04-16T02:14:00.841Z,934.98
2023-04-16T02:15:01.316Z,935.02
2023-04-16T02:16:02.216Z,935.06
2023-04-16T02:17:02.332Z,935.01
2023-04-16T02:18:03.271Z,934.99
2023-04-16T02:19:03.891Z,935.04
2023-04-16T02:20:04.552Z,935.01
2023-04-16T02:21:04.839Z,935.03
2023-04-16T02:22:05.765Z,934.98
2023-04-16T02:23:06.526Z,934.98
2023-04-16T02:24:07.020Z,934.99
2023-04-16T02:25:07.319Z,935
2023-04-16T02:26:07.591Z,935.03
2023-04-16T02:27:08.357Z,935
2023-04-16T02:28:09.280Z,935.01
2023-04-16T02:29:09.718Z,935.03
2023-04-16T02:30:10.362Z,935.08
2023-04-16T02:31:10.898Z,935.04
2023-04-16T02:32:11.901Z,935.04
2023-04-16T02:33:12.340Z,935.01
2023-04-16T02:34:12.654Z,934.99
2023-04-16T02:35:13.195Z,935.03
2023-04-16T02:36:13.581Z,935.05
2023-04-16T02:37:14.087Z,935.05
2023-04-16T02:38:14.267Z,935.05
2023-04-16T02:39:14.763Z,935.09
2023-04-16T02:40:15.251Z,935.1
2023-04-16T02:41:15.654Z,935.07
2023-04-16T02:42:16.392Z,935.09
2023-04-16T02:43:16.490Z,935.04
2023-04-16T02:44:17.200Z,935.01
2023-04-16T02:45:17.732Z,935.07
2023-04-16T02:46:17.808Z,935.07
2023-04-16T02:47:18.398Z,935.05
2023-04-16T02:48:19.042Z,935.04
2023-04-16T02:49:19.135Z,935.03
2023-04-16T02:50:19.627Z,935.03
2023-04-16T02:51:20.539Z,935.06
2023-04-16T02:52:20.823Z,935.09
2023-04-16T02:53:21.775Z,935.08
2023-04-16T02:54:22.723Z,935.06
2023-04-16T02:55:23.663Z,935.11
2023-04-16T02:56:24.561Z,935.07
2023-04-16T02:57:24.867Z,935.06
2023-04-16T02:58:25.371Z,935.1
2023-04-16T02:59:25.684Z,935.1
2023-04-16T03:00:26.570Z,935.09
2023-04-16T03:01:27.286Z,935.11
2023-04-16T03:02:27.633Z,935.12
2023-04-16T03:03:27.998Z,935.07
2023-04-16T03:04:28.192Z,935.11
2023-04-16T03:05:29.088Z,935.08
2023-04-16T03:06:29.757Z,935.12
2023-04-16T03:07:30.265Z,935.1
2023-04-16T03:08:30.464Z,935.1
2023-04-16T03:09:31.384Z,935.12
2023-04-16T03:10:31.931Z,935.12
2023-04-16T03:11:32.617Z,935.08
2023-04-16T03:12:32.766Z,935.09
2023-04-16T03:13:33.491Z,935.09
2023-04-16T03:14:34.208Z,935.08
2023-04-16T03:15:34.773Z,935.03
2023-04-16T03:16:35.511Z,935.06
2023-04-16T03:17:36.271Z,935.1
2023-04-16T03:18:36.424Z,935.05
2023-04-16T03:19:36.702Z,935.11
2023-04-16T03:20:37.397Z,935.13
2023-04-16T03:21:37.670Z,935.07
2023-04-16T03:22:38.616Z,935.09
2023-04-16T03:23:39.368Z,935.08
2023-04-16T03:24:39.497Z,935.09
2023-04-16T03:25:40.400Z,935.1
2023-04-16T03:26:40.818Z,935.08
2023-04-16T03:27:41.655Z,935.09
2023-04-16T03:28:42.545Z,935.1
2023-04-16T03:29:43.277Z,935.12
2023-04-16T03:30:44.172Z,935.09
2023-04-16T03:31:45.009Z,935.15
2023-04-16T03:32:45.297Z,935.16
2023-04-16T03:33:45.393Z,935.12
2023-04-16T03:34:45.772Z,935.15
2023-04-16T03:35:46.580Z,935.11
2023-04-16T03:36:47.147Z,935.12
2023-04-16T03:37:47.447Z,935.15
2023-04-16T03:38:48.193Z,935.13
2023-04-16T03:39:48.896Z,935.14
2023-04-16T03:40:49.408Z,935.17
2023-04-16T03:41:50.123Z,935.15
2023-04-16T03:42:50.829Z,935.12
2023-04-16T03:43:51.501Z,935.2
2023-04-16T03:44:52.197Z,935.19
2023-04-16T03:45:52.542Z,935.2
2023-04-16T03:46:53.094Z,935.23
2023-04-16T03:47:53.445Z,935.23
2023-04-16T03:48:53.590Z,935.28
2023-04-16T03:49:54.334Z,935.31
2023-04-16T03:50:54.864Z,935.3
2023-04-16T03:51:55.534Z,935.31
2023-04-16T03:52:56.478Z,935.35
2023-04-16T03:53:56.663Z,935.36
2023-04-16T03:54:57.349Z,935.4
2023-04-16T03:55:57.676Z,935.37
2023-04-16T03:56:58.083Z,935.37
2023-04-16T03:57:58.612Z,935.39
2023-04-16T03:58:59.506Z,935.38
2023-04-16T04:00:00.188Z,935.41
2023-04-16T04:01:00.794Z,935.36
2023-04-16T04:02:01.347Z,935.39
2023-04-16T04:03:02.541Z,935.37
2023-04-16T04:04:02.616Z,935.37
2023-04-16T04:05:03.297Z,935.41
2023-04-16T04:06:03.427Z,935.36
2023-04-16T04:07:04.400Z,935.4
2023-04-16T04:08:04.919Z,935.45
2023-04-16T04:09:05.085Z,935.44
2023-04-16T04:10:05.546Z,935.38
2023-04-16T04:11:06.084Z,935.45
2023-04-16T04:12:06.598Z,935.45
2023-04-16T04:13:07.120Z,935.41
2023-04-16T04:14:08.050Z,935.45
2023-04-16T04:15:08.358Z,935.45
2023-04-16T04:16:09.075Z,935.5
2023-04-16T04:17:09.629Z,935.47
2023-04-16T04:18:10.156Z,935.48
2023-04-16T04:19:11.144Z,935.48
2023-04-16T04:20:11.164Z,935.51
2023-04-16T04:21:11.631Z,935.5
2023-04-16T04:22:12.360Z,935.49
2023-04-16T04:23:13.305Z,935.47
2023-04-16T04:24:14.046Z,935.48
2023-04-16T04:25:14.940Z,935.53
2023-04-16T04:26:15.753Z,935.48
2023-04-16T04:27:16.300Z,935.52
2023-04-16T04:28:17.215Z,935.53
2023-04-16T04:29:17.772Z,935.52
2023-04-16T04:30:18.445Z,935.55
2023-04-16T04:31:19.378Z,935.56
2023-04-16T04:32:20.117Z,935.54
2023-04-16T04:33:20.626Z,935.58
2023-04-16T04:34:21.516Z,935.57
2023-04-16T04:35:22.225Z,935.59
2023-04-16T04:36:22.703Z,935.58
2023-04-16T04:37:22.897Z,935.56
2023-04-16T04:38:23.402Z,935.56
2023-04-16T04:39:24.163Z,935.54
2023-04-16T04:40:24.646Z,935.53
2023-04-16T04:41:25.353Z,935.54
2023-04-16T04:42:25.854Z,935.55
2023-04-16T04:43:26.183Z,935.58
2023-04-16T04:44:27.065Z,935.6
2023-04-16T04:45:28.489Z,935.66
2023-04-16T04:46:27.915Z,935.66
2023-04-16T04:47:27.970Z,935.61
2023-04-16T04:48:28.591Z,935.63
2023-04-16T04:49:29.279Z,935.64
2023-04-16T04:50:29.977Z,935.72
2023-04-16T04:51:30.264Z,935.71
2023-04-16T04:52:31.156Z,935.67
2023-04-16T04:53:31.934Z,935.73
2023-04-16T04:54:32.903Z,935.74
2023-04-16T04:55:33.692Z,935.78
2023-04-16T04:56:34.361Z,935.77
2023-04-16T04:57:35.180Z,935.8
2023-04-16T04:58:35.887Z,935.84
2023-04-16T04:59:36.408Z,935.84
2023-04-16T05:00:37.089Z,935.81
2023-04-16T05:01:38.192Z,935.84
2023-04-16T05:02:38.976Z,935.8
2023-04-16T05:03:39.532Z,935.76
2023-04-16T05:04:39.582Z,935.81
2023-04-16T05:05:40.102Z,935.84
2023-04-16T05:06:40.999Z,935.79
2023-04-16T05:07:42.015Z,935.81
2023-04-16T05:08:42.232Z,935.82
2023-04-16T05:09:42.974Z,935.84
2023-04-16T05:10:43.700Z,935.84
2023-04-16T05:11:44.041Z,935.87
2023-04-16T05:12:44.810Z,935.91
2023-04-16T05:13:45.389Z,935.86
2023-04-16T05:14:45.900Z,935.88
2023-04-16T05:15:46.851Z,935.9
2023-04-16T05:16:47.610Z,935.87
2023-04-16T05:17:48.682Z,935.87
2023-04-16T05:18:49.342Z,935.9
2023-04-16T05:19:49.832Z,935.86
2023-04-16T05:20:50.327Z,935.88
2023-04-16T05:21:51.148Z,935.91
2023-04-16T05:22:51.709Z,935.88
2023-04-16T05:23:52.409Z,935.91
2023-04-16T05:24:53.167Z,935.87
2023-04-16T05:25:53.767Z,935.87
2023-04-16T05:26:54.675Z,935.89
2023-04-16T05:27:55.126Z,935.92
2023-04-16T05:28:55.830Z,935.91
2023-04-16T05:29:56.272Z,935.91
2023-04-16T05:30:56.560Z,935.93
2023-04-16T05:31:57.223Z,935.96
2023-04-16T05:32:57.804Z,935.96
2023-04-16T05:33:57.917Z,935.99
2023-04-16T05:34:58.225Z,935.96
2023-04-16T05:35:58.846Z,935.95
2023-04-16T05:36:59.539Z,935.95
2023-04-16T05:37:59.719Z,935.98
2023-04-16T05:39:00.265Z,936.01
2023-04-16T05:40:01.055Z,936.07
2023-04-16T05:41:01.549Z,936.04
2023-04-16T05:42:02.266Z,936.07
2023-04-16T05:43:03.148Z,936.09
2023-04-16T05:44:03.705Z,936.11
2023-04-16T05:45:04.595Z,936.07
2023-04-16T05:46:05.551Z,936.09
2023-04-16T05:47:05.887Z,936.09
2023-04-16T05:48:06.527Z,936.14
2023-04-16T05:49:07.600Z,936.16
2023-04-16T05:50:08.343Z,936.16
2023-04-16T05:51:09.067Z,936.17
2023-04-16T05:52:09.580Z,936.11
2023-04-16T05:53:10.130Z,936.14
2023-04-16T05:54:10.835Z,936.15
2023-04-16T05:55:11.729Z,936.21
2023-04-16T05:56:12.229Z,936.19
2023-04-16T05:57:12.922Z,936.19
2023-04-16T05:58:13.283Z,936.18
2023-04-16T05:59:14.021Z,936.2
2023-04-16T06:00:14.517Z,936.22
2023-04-16T06:01:15.237Z,936.18
2023-04-16T06:02:15.916Z,936.22
2023-04-16T06:03:16.282Z,936.25
2023-04-16T06:04:16.844Z,936.25
2023-04-16T06:05:17.124Z,936.25
2023-04-16T06:06:17.873Z,936.25
2023-04-16T06:07:17.981Z,936.26
2023-04-16T06:08:18.995Z,936.28
2023-04-16T06:09:19.707Z,936.29
2023-04-16T06:10:20.468Z,936.28
2023-04-16T06:11:21.184Z,936.29
2023-04-16T06:12:21.364Z,936.28
2023-04-16T06:13:22.001Z,936.29
2023-04-16T06:14:22.700Z,936.29
2023-04-16T06:15:23.201Z,936.32
2023-04-16T06:16:23.324Z,936.32
2023-04-16T06:17:24.085Z,936.29
2023-04-16T06:18:24.944Z,936.31
2023-04-16T06:19:25.679Z,936.33
2023-04-16T06:20:26.424Z,936.3
2023-04-16T06:21:26.921Z,936.33
2023-04-16T06:22:27.867Z,936.34
2023-04-16T06:23:28.585Z,936.34
2023-04-16T06:24:29.083Z,936.35
2023-04-16T06:25:29.888Z,936.34
2023-04-16T06:26:30.480Z,936.27
2023-04-16T06:27:30.835Z,936.29
2023-04-16T06:28:31.334Z,936.29
2023-04-16T06:29:40.267Z,936.27
2023-04-16T06:30:32.160Z,936.27
2023-04-16T06:31:32.633Z,936.3
2023-04-16T06:32:32.998Z,936.29
2023-04-16T06:33:33.311Z,936.29
2023-04-16T06:34:34.275Z,936.31
2023-04-16T06:35:34.966Z,936.32
2023-04-16T06:36:35.676Z,936.33
2023-04-16T06:37:35.997Z,936.33
2023-04-16T06:38:36.592Z,936.31
2023-04-16T06:39:37.100Z,936.35
2023-04-16T06:40:38.086Z,936.37
2023-04-16T06:41:38.845Z,936.36
2023-04-16T06:42:39.547Z,936.4
2023-04-16T06:43:40.020Z,936.36
2023-04-16T06:44:40.746Z,936.36
2023-04-16T06:45:41.623Z,936.32
2023-04-16T06:46:42.538Z,936.35
2023-04-16T06:47:43.011Z,936.35
2023-04-16T06:48:43.103Z,936.37
2023-04-16T06:49:43.563Z,936.37
2023-04-16T06:50:43.666Z,936.36
2023-04-16T06:51:43.946Z,936.37
2023-04-16T06:52:44.501Z,936.4
2023-04-16T06:53:45.194Z,936.41
2023-04-16T06:54:45.742Z,936.38
2023-04-16T06:55:46.662Z,936.39
2023-04-16T06:56:47.554Z,936.39
2023-04-16T06:57:48.251Z,936.41
2023-04-16T06:58:49.030Z,936.43
2023-04-16T06:59:49.961Z,936.45
2023-04-16T07:00:50.672Z,936.44
2023-04-16T07:01:50.891Z,936.45
2023-04-16T07:02:51.102Z,936.44
2023-04-16T07:03:51.561Z,936.46
2023-04-16T07:04:52.020Z,936.47
2023-04-16T07:05:52.127Z,936.5
2023-04-16T07:06:52.811Z,936.5
2023-04-16T07:07:53.357Z,936.47
2023-04-16T07:08:53.732Z,936.51
2023-04-16T07:09:54.485Z,936.51
2023-04-16T07:10:55.055Z,936.54
2023-04-16T07:11:55.950Z,936.52
2023-04-16T07:12:56.460Z,936.5
2023-04-16T07:13:57.203Z,936.53
2023-04-16T07:14:57.393Z,936.53
2023-04-16T07:15:57.697Z,936.5
2023-04-16T07:16:58.402Z,936.49
2023-04-16T07:17:59.023Z,936.52
2023-04-16T07:18:59.648Z,936.54
2023-04-16T07:19:59.976Z,936.48
2023-04-16T07:21:00.894Z,936.46
2023-04-16T07:22:01.186Z,936.53
2023-04-16T07:23:01.727Z,936.48
2023-04-16T07:24:02.630Z,936.52
2023-04-16T07:25:03.395Z,936.51
2023-04-16T07:26:04.387Z,936.49
2023-04-16T07:27:05.124Z,936.49
2023-04-16T07:28:05.636Z,936.52
2023-04-16T07:29:06.053Z,936.5
2023-04-16T07:30:06.805Z,936.57
2023-04-16T07:31:07.547Z,936.56
2023-04-16T07:32:08.144Z,936.54
2023-04-16T07:33:08.371Z,936.59
2023-04-16T07:34:09.259Z,936.58
2023-04-16T07:35:09.365Z,936.59
2023-04-16T07:36:10.155Z,936.59
2023-04-16T07:37:10.905Z,936.62
2023-04-16T07:38:11.425Z,936.61
2023-04-16T07:39:12.563Z,936.64
2023-04-16T07:40:13.139Z,936.61
2023-04-16T07:41:14.183Z,936.63
2023-04-16T07:42:14.879Z,936.65
2023-04-16T07:43:15.803Z,936.67
2023-04-16T07:44:16.283Z,936.63
2023-04-16T07:45:17.047Z,936.67
2023-04-16T07:46:17.800Z,936.67
2023-04-16T07:47:18.835Z,936.67
2023-04-16T07:48:19.616Z,936.64
2023-04-16T07:49:19.887Z,936.72
2023-04-16T07:50:20.837Z,936.7
2023-04-16T07:51:21.750Z,936.75
2023-04-16T07:52:22.652Z,936.74
2023-04-16T07:53:23.155Z,936.75
2023-04-16T07:54:24.067Z,936.73
2023-04-16T07:55:25.046Z,936.71
2023-04-16T07:56:26.020Z,936.77
2023-04-16T07:57:26.722Z,936.76
2023-04-16T07:58:27.052Z,936.75
2023-04-16T07:59:27.619Z,936.75
2023-04-16T08:00:27.572Z,936.76
2023-04-16T08:01:27.684Z,936.74
2023-04-16T08:02:28.748Z,936.79
2023-04-16T08:03:29.208Z,936.77
2023-04-16T08:04:30.107Z,936.76
2023-04-16T08:05:30.560Z,936.74
2023-04-16T08:06:30.891Z,936.74
2023-04-16T08:07:32.778Z,936.73
2023-04-16T08:08:32.092Z,936.76
2023-04-16T08:09:32.329Z,936.77
2023-04-16T08:10:32.884Z,936.8
2023-04-16T08:11:33.475Z,936.84
2023-04-16T08:12:33.642Z,936.83
2023-04-16T08:13:34.355Z,936.89
2023-04-16T08:14:34.872Z,936.86
2023-04-16T08:15:35.824Z,936.9
2023-04-16T08:16:36.559Z,936.91
2023-04-16T08:17:37.157Z,936.95
2023-04-16T08:18:38.179Z,936.91
2023-04-16T08:19:38.785Z,936.95
2023-04-16T08:20:39.520Z,936.94
2023-04-16T08:21:40.217Z,936.97
2023-04-16T08:22:40.916Z,936.97
2023-04-16T08:23:41.414Z,937.01
2023-04-16T08:24:41.899Z,937.01
2023-04-16T08:25:42.435Z,937.02
2023-04-16T08:26:43.195Z,937.06
2023-04-16T08:27:43.732Z,936.99
2023-04-16T08:28:44.251Z,937.09
2023-04-16T08:29:44.501Z,937.02
2023-04-16T08:30:45.336Z,937.06
2023-04-16T08:31:45.924Z,937.05
2023-04-16T08:32:48.040Z,937.07
2023-04-16T08:33:47.700Z,937.11
2023-04-16T08:34:48.229Z,937.09
2023-04-16T08:35:48.945Z,937.06
2023-04-16T08:36:49.482Z,937.09
2023-04-16T08:37:50.011Z,937.08
2023-04-16T08:38:50.355Z,937.08
2023-04-16T08:39:50.663Z,937.1
2023-04-16T08:40:51.177Z,937.14
2023-04-16T08:41:52.183Z,937.14
2023-04-16T08:42:52.696Z,937.16
2023-04-16T08:43:53.167Z,937.18
2023-04-16T08:44:53.668Z,937.15
2023-04-16T08:45:54.462Z,937.14
2023-04-16T08:46:54.632Z,937.16
2023-04-16T08:47:55.056Z,937.22
2023-04-16T08:48:56.169Z,937.2
2023-04-16T08:49:57.952Z,937.22
2023-04-16T08:50:57.163Z,937.21
2023-04-16T08:51:57.864Z,937.19
2023-04-16T08:52:58.036Z,937.18
2023-04-16T08:53:58.824Z,937.2
2023-04-16T08:54:59.567Z,937.19
2023-04-16T08:56:00.290Z,937.2
2023-04-16T08:57:01.085Z,937.24
2023-04-16T08:58:01.994Z,937.22
2023-04-16T08:59:02.465Z,937.19
2023-04-16T09:00:03.442Z,937.18
2023-04-16T09:01:04.176Z,937.19
2023-04-16T09:02:05.043Z,937.18
2023-04-16T09:03:05.448Z,937.25
2023-04-16T09:04:06.190Z,937.22
2023-04-16T09:05:06.779Z,937.25
2023-04-16T09:06:07.558Z,937.28
2023-04-16T09:07:08.473Z,937.25
2023-04-16T09:08:08.953Z,937.29
2023-04-16T09:09:09.992Z,937.3
2023-04-16T09:10:10.574Z,937.3
2023-04-16T09:11:11.138Z,937.29
2023-04-16T09:12:12.128Z,937.33
2023-04-16T09:13:13.032Z,937.31
2023-04-16T09:14:13.737Z,937.34
2023-04-16T09:15:14.628Z,937.38
2023-04-16T09:16:14.806Z,937.4
2023-04-16T09:17:15.652Z,937.4
2023-04-16T09:18:16.281Z,937.38
2023-04-16T09:19:16.832Z,937.39
2023-04-16T09:20:17.439Z,937.36
2023-04-16T09:21:18.359Z,937.39
2023-04-16T09:22:18.469Z,937.41
2023-04-16T09:23:19.150Z,937.45
2023-04-16T09:24:19.647Z,937.43
2023-04-16T09:25:19.931Z,937.45
2023-04-16T09:26:20.641Z,937.41
2023-04-16T09:27:22.025Z,937.46
2023-04-16T09:28:22.029Z,937.49
2023-04-16T09:29:22.523Z,937.47
2023-04-16T09:30:23.187Z,937.5
2023-04-16T09:31:23.971Z,937.49
2023-04-16T09:32:24.922Z,937.51
2023-04-16T09:33:25.782Z,937.5
2023-04-16T09:34:26.789Z,937.53
2023-04-16T09:35:27.574Z,937.51
2023-04-16T09:36:28.486Z,937.51
2023-04-16T09:37:29.197Z,937.51
2023-04-16T09:38:29.670Z,937.49
2023-04-16T09:39:30.173Z,937.5
2023-04-16T09:40:30.363Z,937.48
2023-04-16T09:41:30.789Z,937.49
2023-04-16T09:42:31.648Z,937.52
2023-04-16T09:43:32.665Z,937.53
2023-04-16T09:44:33.172Z,937.52
2023-04-16T09:45:33.507Z,937.56
2023-04-16T09:46:34.489Z,937.53
2023-04-16T09:47:34.990Z,937.54
2023-04-16T09:48:35.400Z,937.55
2023-04-16T09:49:36.058Z,937.55
2023-04-16T09:50:36.560Z,937.6
2023-04-16T09:51:37.462Z,937.55
2023-04-16T09:52:38.177Z,937.57
2023-04-16T09:53:39.064Z,937.56
2023-04-16T09:54:39.551Z,937.59
2023-04-16T09:55:40.466Z,937.56
2023-04-16T09:56:40.694Z,937.55
2023-04-16T09:57:41.708Z,937.56
2023-04-16T09:58:42.667Z,937.58
2023-04-16T09:59:43.165Z,937.56
2023-04-16T10:00:43.786Z,937.59
2023-04-16T10:01:43.989Z,937.59
2023-04-16T10:02:44.307Z,937.58
2023-04-16T10:03:44.542Z,937.57
2023-04-16T10:04:45.054Z,937.58
2023-04-16T10:05:45.166Z,937.57
2023-04-16T10:06:45.686Z,937.59
2023-04-16T10:07:46.555Z,937.6
2023-04-16T10:08:49.215Z,937.61
2023-04-16T10:09:48.156Z,937.6
2023-04-16T10:10:49.163Z,937.64
2023-04-16T10:11:49.730Z,937.61
2023-04-16T10:12:50.682Z,937.61
2023-04-16T10:13:50.853Z,937.61
2023-04-16T10:14:51.545Z,937.64
2023-04-16T10:15:51.846Z,937.65
2023-04-16T10:16:52.627Z,937.66
2023-04-16T10:17:53.668Z,937.63
2023-04-16T10:18:54.450Z,937.65
2023-04-16T10:19:54.711Z,937.65
2023-04-16T10:20:55.645Z,937.66
2023-04-16T10:21:56.658Z,937.67
2023-04-16T10:22:57.181Z,937.67
2023-04-16T10:23:57.481Z,937.66
2023-04-16T10:24:58.066Z,937.62
2023-04-16T10:25:58.800Z,937.62
2023-04-16T10:26:59.578Z,937.62
2023-04-16T10:28:00.382Z,937.63
2023-04-16T10:29:00.488Z,937.67
2023-04-16T10:30:01.143Z,937.67
2023-04-16T10:31:01.476Z,937.65
2023-04-16T10:32:01.596Z,937.67
2023-04-16T10:33:02.433Z,937.65
2023-04-16T10:34:03.373Z,937.69
2023-04-16T10:35:03.685Z,937.7
2023-04-16T10:36:07.590Z,937.65
2023-04-16T10:37:04.719Z,937.69
2023-04-16T10:38:05.293Z,937.7
2023-04-16T10:39:05.984Z,937.71
2023-04-16T10:40:06.803Z,937.71
2023-04-16T10:41:07.485Z,937.73
2023-04-16T10:42:08.059Z,937.7
2023-04-16T10:43:08.215Z,937.73
2023-04-16T10:44:08.933Z,937.73
2023-04-16T10:45:09.640Z,937.72
2023-04-16T10:46:10.374Z,937.77
2023-04-16T10:47:10.696Z,937.74
2023-04-16T10:48:11.236Z,937.69
2023-04-16T10:49:11.810Z,937.75
2023-04-16T10:50:12.620Z,937.75
2023-04-16T10:51:13.285Z,937.7
2023-04-16T10:52:14.175Z,937.74
2023-04-16T10:53:15.115Z,937.72
2023-04-16T10:54:15.623Z,937.73
2023-04-16T10:55:16.000Z,937.75
2023-04-16T10:56:16.495Z,937.73
2023-04-16T10:57:17.239Z,937.73
2023-04-16T10:58:18.285Z,937.76
2023-04-16T10:59:18.987Z,937.75
2023-04-16T11:00:19.709Z,937.75
2023-04-16T11:01:20.355Z,937.75
2023-04-16T11:02:20.650Z,937.74
2023-04-16T11:03:21.354Z,937.76
2023-04-16T11:04:22.248Z,937.75
2023-04-16T11:05:22.826Z,937.71
2023-04-16T11:06:23.356Z,937.78
2023-04-16T11:07:23.662Z,937.74
2023-04-16T11:08:25.307Z,937.74
2023-04-16T11:09:24.314Z,937.76
2023-04-16T11:10:24.955Z,937.74
2023-04-16T11:11:25.555Z,937.77
2023-04-16T11:12:26.268Z,937.75
2023-04-16T11:13:27.046Z,937.75
2023-04-16T11:14:27.141Z,937.75
2023-04-16T11:15:27.614Z,937.78
2023-04-16T11:16:28.656Z,937.75
2023-04-16T11:17:29.367Z,937.78
2023-04-16T11:18:30.300Z,937.77
2023-04-16T11:19:30.553Z,937.76
2023-04-16T11:20:30.903Z,937.81
2023-04-16T11:21:31.701Z,937.81
2023-04-16T11:22:32.617Z,937.79
2023-04-16T11:23:33.581Z,937.8
2023-04-16T11:24:34.267Z,937.74
2023-04-16T11:25:34.988Z,937.8
2023-04-16T11:26:35.895Z,937.82
2023-04-16T11:27:36.852Z,937.79
2023-04-16T11:28:37.631Z,937.79
2023-04-16T11:29:38.528Z,937.82
2023-04-16T11:30:38.974Z,937.83
2023-04-16T11:31:39.123Z,937.77
2023-04-16T11:32:40.068Z,937.78
2023-04-16T11:33:40.828Z,937.84
2023-04-16T11:34:41.755Z,937.81
2023-04-16T11:35:42.226Z,937.84
2023-04-16T11:36:42.513Z,937.85
2023-04-16T11:37:43.501Z,937.81
2023-04-16T11:38:44.221Z,937.85
2023-04-16T11:39:44.925Z,937.88
2023-04-16T11:40:45.831Z,937.87
2023-04-16T11:41:46.237Z,937.89
2023-04-16T11:42:46.827Z,937.9
2023-04-16T11:43:47.734Z,937.9
2023-04-16T11:44:47.890Z,937.89
2023-04-16T11:45:48.367Z,937.89
2023-04-16T11:46:48.582Z,937.9
2023-04-16T11:47:49.305Z,937.87
2023-04-16T11:48:50.384Z,937.9
2023-04-16T11:49:50.538Z,937.85
2023-04-16T11:50:51.294Z,937.9
2023-04-16T11:51:51.983Z,937.93
2023-04-16T11:52:52.781Z,937.9
2023-04-16T11:53:53.545Z,937.87
2023-04-16T11:54:53.624Z,937.88
2023-04-16T11:55:54.524Z,937.9
2023-04-16T11:56:55.252Z,937.93
2023-04-16T11:57:55.813Z,937.9
2023-04-16T11:58:56.396Z,937.92
2023-04-16T12:00:02.670Z,937.93
2023-04-16T12:00:57.196Z,937.96
2023-04-16T12:01:57.800Z,937.96
2023-04-16T12:02:58.230Z,937.95
2023-04-16T12:03:58.698Z,937.97
2023-04-16T12:04:59.366Z,937.93
2023-04-16T12:06:00.423Z,937.96
2023-04-16T12:07:01.506Z,937.99
2023-04-16T12:08:02.199Z,938.01
2023-04-16T12:09:02.318Z,937.99
2023-04-16T12:10:02.786Z,937.98
2023-04-16T12:11:03.486Z,937.96
2023-04-16T12:12:03.722Z,938.02
2023-04-16T12:13:04.758Z,938
2023-04-16T12:14:05.730Z,937.98
2023-04-16T12:15:06.633Z,938.01
2023-04-16T12:16:07.386Z,938
2023-04-16T12:17:07.597Z,937.95
2023-04-16T12:18:07.672Z,937.96
2023-04-16T12:19:08.637Z,937.99
2023-04-16T12:20:09.402Z,937.97
2023-04-16T12:21:10.092Z,937.98
2023-04-16T12:22:10.652Z,937.97
2023-04-16T12:23:10.958Z,937.97
2023-04-16T12:24:11.684Z,937.96
2023-04-16T12:25:12.396Z,937.96
2023-04-16T12:26:12.910Z,937.94
2023-04-16T12:27:13.677Z,938.01
2023-04-16T12:28:14.393Z,937.96
2023-04-16T12:29:15.358Z,937.96
2023-04-16T12:30:16.274Z,937.98
2023-04-16T12:31:17.037Z,937.98
2023-04-16T12:32:17.615Z,937.93
2023-04-16T12:33:18.514Z,937.96
2023-04-16T12:34:19.249Z,937.95
2023-04-16T12:35:19.395Z,937.96
2023-04-16T12:36:19.525Z,938
2023-04-16T12:37:20.591Z,937.96
2023-04-16T12:38:23.672Z,938.01
2023-04-16T12:39:21.942Z,937.99